sensor_id;sensor_type;location;lat;lon;timestamp;temperature;humidity
20139;DHT22;10230;51.502;10.800;2022-10-15T08:48:12;18.60;99.90
20139;DHT22;10230;51.502;10.800;2022-10-15T08:50:47;18.60;99.90
20139;DHT22;10230;51.502;10.800;2022-10-15T08:53:22;18.80;99.90
20139;DHT22;10230;51.502;10.800;2022-10-15T08:55:52;19.00;99.90
20139;DHT22;10230;51.502;10.800;2022-10-15T09:01:36;19.30;99.90
20139;DHT22;10230;51.502;10.800;2022-10-15T09:04:28;19.60;99.90
20139;DHT22;10230;51.502;10.800;2022-10-15T09:07:06;19.80;99.90
20139;DHT22;10230;51.502;10.800;2022-10-15T09:10:10;20.00;99.90
20139;DHT22;10230;51.502;10.800;2022-10-15T09:12:57;20.00;99.90
20139;DHT22;10230;51.502;10.800;2022-10-15T09:15:23;19.60;99.90
20139;DHT22;10230;51.502;10.800;2022-10-15T09:17:51;19.20;99.90
20139;DHT22;10230;51.502;10.800;2022-10-15T09:20:32;18.40;99.90
20139;DHT22;10230;51.502;10.800;2022-10-15T09:22:58;18.40;99.90
20139;DHT22;10230;51.502;10.800;2022-10-15T09:25:31;18.10;99.90
20139;DHT22;10230;51.502;10.800;2022-10-15T09:28:07;18.00;99.90
20139;DHT22;10230;51.502;10.800;2022-10-15T09:30:47;18.00;99.90
20139;DHT22;10230;51.502;10.800;2022-10-15T09:41:53;18.10;99.90
20139;DHT22;10230;51.502;10.800;2022-10-15T09:44:22;18.50;99.90
20139;DHT22;10230;51.502;10.800;2022-10-15T09:46:50;18.90;99.90
20139;DHT22;10230;51.502;10.800;2022-10-15T09:49:26;19.20;99.90
20139;DHT22;10230;51.502;10.800;2022-10-15T09:52:04;19.40;99.90
20139;DHT22;10230;51.502;10.800;2022-10-15T09:54:41;19.80;99.90
20139;DHT22;10230;51.502;10.800;2022-10-15T09:57:10;20.10;99.90
20139;DHT22;10230;51.502;10.800;2022-10-15T09:59:37;20.00;99.90
20139;DHT22;10230;51.502;10.800;2022-10-15T10:02:29;19.80;99.90
20139;DHT22;10230;51.502;10.800;2022-10-15T10:04:55;19.30;99.90
20139;DHT22;10230;51.502;10.800;2022-10-15T10:07:35;18.90;99.90
20139;DHT22;10230;51.502;10.800;2022-10-15T10:10:20;18.80;99.90
20139;DHT22;10230;51.502;10.800;2022-10-15T10:12:47;19.10;99.90
20139;DHT22;10230;51.502;10.800;2022-10-15T10:15:35;20.30;99.90
20139;DHT22;10230;51.502;10.800;2022-10-15T10:33:14;25.30;99.90
20139;DHT22;10230;51.502;10.800;2022-10-15T10:35:47;26.10;99.90
20139;DHT22;10230;51.502;10.800;2022-10-15T10:38:24;25.70;99.90
20139;DHT22;10230;51.502;10.800;2022-10-15T10:41:07;25.20;99.90
20139;DHT22;10230;51.502;10.800;2022-10-15T10:43:52;24.40;99.90
20139;DHT22;10230;51.502;10.800;2022-10-15T10:46:19;23.40;99.90
20139;DHT22;10230;51.502;10.800;2022-10-15T10:51:19;21.80;99.90
20139;DHT22;10230;51.502;10.800;2022-10-15T10:58:42;21.30;99.90
20139;DHT22;10230;51.502;10.800;2022-10-15T11:01:11;22.20;99.90
20139;DHT22;10230;51.502;10.800;2022-10-15T11:03:40;22.50;99.90
20139;DHT22;10230;51.502;10.800;2022-10-15T11:11:36;27.80;99.90
20139;DHT22;10230;51.502;10.800;2022-10-15T11:14:29;28.60;99.90
20139;DHT22;10230;51.502;10.800;2022-10-15T11:38:47;22.70;99.90
20139;DHT22;10230;51.502;10.800;2022-10-15T11:49:15;21.40;99.90
20139;DHT22;10230;51.502;10.800;2022-10-15T11:54:44;21.30;99.90
20139;DHT22;10230;51.502;10.800;2022-10-15T11:57:15;21.30;99.90
20139;DHT22;10230;51.502;10.800;2022-10-15T12:02:27;21.10;99.90
20139;DHT22;10230;51.502;10.800;2022-10-15T12:05:05;20.80;99.90
20139;DHT22;10230;51.502;10.800;2022-10-15T12:07:48;20.40;99.90
20139;DHT22;10230;51.502;10.800;2022-10-15T12:13:47;20.80;99.90
20139;DHT22;10230;51.502;10.800;2022-10-15T12:19:11;21.20;99.90
20139;DHT22;10230;51.502;10.800;2022-10-15T12:21:42;21.00;99.90
20139;DHT22;10230;51.502;10.800;2022-10-15T12:27:25;21.00;99.90
20139;DHT22;10230;51.502;10.800;2022-10-15T12:30:11;21.00;99.90
20139;DHT22;10230;51.502;10.800;2022-10-15T12:32:45;20.80;99.90
20139;DHT22;10230;51.502;10.800;2022-10-15T12:37:41;20.30;99.90
20139;DHT22;10230;51.502;10.800;2022-10-15T12:40:29;20.30;99.90
20139;DHT22;10230;51.502;10.800;2022-10-15T12:43:13;20.20;99.90
20139;DHT22;10230;51.502;10.800;2022-10-15T12:45:59;20.00;99.90
20139;DHT22;10230;51.502;10.800;2022-10-15T12:48:43;20.20;99.90
20139;DHT22;10230;51.502;10.800;2022-10-15T12:53:44;20.20;99.90
20139;DHT22;10230;51.502;10.800;2022-10-15T13:08:43;19.00;99.90
20139;DHT22;10230;51.502;10.800;2022-10-15T13:11:28;18.90;99.90
20139;DHT22;10230;51.502;10.800;2022-10-15T13:14:19;18.90;99.90
20139;DHT22;10230;51.502;10.800;2022-10-15T13:16:48;18.80;99.90
20139;DHT22;10230;51.502;10.800;2022-10-15T13:19:19;18.10;99.90
20139;DHT22;10230;51.502;10.800;2022-10-15T13:21:49;18.80;99.90
20139;DHT22;10230;51.502;10.800;2022-10-15T13:24:18;18.60;99.90
20139;DHT22;10230;51.502;10.800;2022-10-15T13:26:44;18.60;99.90
20139;DHT22;10230;51.502;10.800;2022-10-15T13:29:19;18.60;99.90
20139;DHT22;10230;51.502;10.800;2022-10-15T13:31:45;18.60;99.90
20139;DHT22;10230;51.502;10.800;2022-10-15T13:36:44;18.60;99.90
20139;DHT22;10230;51.502;10.800;2022-10-15T13:42:12;18.50;99.90
20139;DHT22;10230;51.502;10.800;2022-10-15T13:44:39;18.50;99.90
20139;DHT22;10230;51.502;10.800;2022-10-15T13:50:08;18.60;99.90
20139;DHT22;10230;51.502;10.800;2022-10-15T13:52:40;18.60;99.90
20139;DHT22;10230;51.502;10.800;2022-10-15T13:55:27;18.60;99.90
20139;DHT22;10230;51.502;10.800;2022-10-15T13:57:59;18.60;99.90
20139;DHT22;10230;51.502;10.800;2022-10-15T14:00:31;18.60;99.90
20139;DHT22;10230;51.502;10.800;2022-10-15T14:03:18;18.60;99.90
20139;DHT22;10230;51.502;10.800;2022-10-15T14:05:46;18.30;99.90
20139;DHT22;10230;51.502;10.800;2022-10-15T14:10:46;18.50;99.90
20139;DHT22;10230;51.502;10.800;2022-10-15T14:13:12;18.50;99.90
20139;DHT22;10230;51.502;10.800;2022-10-15T14:18:15;18.60;99.90
20139;DHT22;10230;51.502;10.800;2022-10-15T14:20:46;18.60;99.90
20139;DHT22;10230;51.502;10.800;2022-10-15T14:23:23;18.40;99.90
20139;DHT22;10230;51.502;10.800;2022-10-15T14:26:00;18.40;99.90
20139;DHT22;10230;51.502;10.800;2022-10-15T14:28:29;18.40;99.90
20139;DHT22;10230;51.502;10.800;2022-10-15T14:30:55;18.40;99.90
20139;DHT22;10230;51.502;10.800;2022-10-15T14:33:50;18.40;99.90
20139;DHT22;10230;51.502;10.800;2022-10-15T14:36:30;18.30;99.90
20139;DHT22;10230;51.502;10.800;2022-10-15T14:39:29;18.30;99.90
20139;DHT22;10230;51.502;10.800;2022-10-15T14:44:46;18.00;99.90
20139;DHT22;10230;51.502;10.800;2022-10-15T14:49:47;17.90;99.90
20139;DHT22;10230;51.502;10.800;2022-10-15T14:52:16;17.80;99.90
20139;DHT22;10230;51.502;10.800;2022-10-15T14:54:47;18.00;99.90
20139;DHT22;10230;51.502;10.800;2022-10-15T14:57:26;17.60;99.90
20139;DHT22;10230;51.502;10.800;2022-10-15T14:59:54;17.70;99.90
20139;DHT22;10230;51.502;10.800;2022-10-15T15:02:23;17.70;99.90
20139;DHT22;10230;51.502;10.800;2022-10-15T15:07:38;17.70;99.90
20139;DHT22;10230;51.502;10.800;2022-10-15T15:10:06;17.80;99.90
20139;DHT22;10230;51.502;10.800;2022-10-15T15:17:27;17.80;99.90
20139;DHT22;10230;51.502;10.800;2022-10-15T15:27:25;17.80;99.90
20139;DHT22;10230;51.502;10.800;2022-10-15T15:29:51;17.90;99.90
20139;DHT22;10230;51.502;10.800;2022-10-15T15:32:17;17.90;99.90
20139;DHT22;10230;51.502;10.800;2022-10-15T15:34:43;17.90;99.90
20139;DHT22;10230;51.502;10.800;2022-10-15T15:39:43;17.80;99.90
20139;DHT22;10230;51.502;10.800;2022-10-15T17:17:44;17.10;99.90
20139;DHT22;10230;51.502;10.800;2022-10-15T17:20:10;17.10;99.90
20139;DHT22;10230;51.502;10.800;2022-10-15T17:22:36;17.10;99.90
20139;DHT22;10230;51.502;10.800;2022-10-15T17:25:02;17.10;99.90
20139;DHT22;10230;51.502;10.800;2022-10-15T17:27:28;17.10;99.90
20139;DHT22;10230;51.502;10.800;2022-10-15T17:29:53;17.10;99.90
20139;DHT22;10230;51.502;10.800;2022-10-15T17:32:19;17.10;99.90
20139;DHT22;10230;51.502;10.800;2022-10-15T17:34:45;17.10;99.90
20139;DHT22;10230;51.502;10.800;2022-10-15T17:37:10;17.00;99.90
20139;DHT22;10230;51.502;10.800;2022-10-15T17:39:38;17.10;99.90
20139;DHT22;10230;51.502;10.800;2022-10-15T17:42:04;17.10;99.90
20139;DHT22;10230;51.502;10.800;2022-10-15T17:44:29;17.00;99.90
20139;DHT22;10230;51.502;10.800;2022-10-15T17:46:55;17.10;99.90
20139;DHT22;10230;51.502;10.800;2022-10-15T17:49:21;17.10;99.90
20139;DHT22;10230;51.502;10.800;2022-10-15T17:51:46;17.10;99.90
20139;DHT22;10230;51.502;10.800;2022-10-15T17:54:12;17.00;99.90
20139;DHT22;10230;51.502;10.800;2022-10-15T17:56:38;17.00;99.90
20139;DHT22;10230;51.502;10.800;2022-10-15T17:59:06;17.10;99.90
20139;DHT22;10230;51.502;10.800;2022-10-15T18:01:38;17.10;99.90
20139;DHT22;10230;51.502;10.800;2022-10-15T18:04:04;17.10;99.90
20139;DHT22;10230;51.502;10.800;2022-10-15T18:06:30;17.10;99.90
20139;DHT22;10230;51.502;10.800;2022-10-15T18:08:56;17.10;99.90
20139;DHT22;10230;51.502;10.800;2022-10-15T18:11:32;17.10;99.90
20139;DHT22;10230;51.502;10.800;2022-10-15T18:13:58;17.00;99.90
20139;DHT22;10230;51.502;10.800;2022-10-15T18:16:24;17.00;99.90
20139;DHT22;10230;51.502;10.800;2022-10-15T18:18:51;17.10;99.90
20139;DHT22;10230;51.502;10.800;2022-10-15T18:21:19;16.90;99.90
20139;DHT22;10230;51.502;10.800;2022-10-15T18:23:45;16.90;99.90
20139;DHT22;10230;51.502;10.800;2022-10-15T18:26:21;16.80;99.90
20139;DHT22;10230;51.502;10.800;2022-10-15T18:28:49;16.80;99.90
20139;DHT22;10230;51.502;10.800;2022-10-15T18:31:15;16.80;99.90
20139;DHT22;10230;51.502;10.800;2022-10-15T18:33:42;16.80;99.90
20139;DHT22;10230;51.502;10.800;2022-10-15T18:36:13;16.70;99.90
20139;DHT22;10230;51.502;10.800;2022-10-15T18:38:39;16.70;99.90
20139;DHT22;10230;51.502;10.800;2022-10-15T18:41:19;16.70;99.90
20139;DHT22;10230;51.502;10.800;2022-10-15T18:43:50;16.70;99.90
20139;DHT22;10230;51.502;10.800;2022-10-15T18:46:16;16.70;99.90
20139;DHT22;10230;51.502;10.800;2022-10-15T18:53:35;16.60;99.90
20139;DHT22;10230;51.502;10.800;2022-10-15T18:56:02;16.30;99.90
20139;DHT22;10230;51.502;10.800;2022-10-15T18:58:28;16.80;99.90
20139;DHT22;10230;51.502;10.800;2022-10-15T19:00:53;16.90;99.90
20139;DHT22;10230;51.502;10.800;2022-10-15T19:03:19;16.90;99.90
20139;DHT22;10230;51.502;10.800;2022-10-15T19:05:44;16.50;99.90
20139;DHT22;10230;51.502;10.800;2022-10-15T19:08:13;16.90;99.90
20139;DHT22;10230;51.502;10.800;2022-10-15T19:10:38;17.00;99.90
20139;DHT22;10230;51.502;10.800;2022-10-15T19:15:30;16.90;99.90
20139;DHT22;10230;51.502;10.800;2022-10-15T19:17:58;17.00;99.90
20139;DHT22;10230;51.502;10.800;2022-10-15T19:20:24;17.00;99.90
20139;DHT22;10230;51.502;10.800;2022-10-15T19:22:50;17.00;99.90
20139;DHT22;10230;51.502;10.800;2022-10-15T19:25:16;17.00;99.90
20139;DHT22;10230;51.502;10.800;2022-10-15T19:27:41;16.90;99.90
20139;DHT22;10230;51.502;10.800;2022-10-15T19:30:07;16.90;99.90
20139;DHT22;10230;51.502;10.800;2022-10-15T19:32:33;16.90;99.90
20139;DHT22;10230;51.502;10.800;2022-10-15T19:34:59;16.90;99.90
20139;DHT22;10230;51.502;10.800;2022-10-15T19:37:25;16.90;99.90
20139;DHT22;10230;51.502;10.800;2022-10-15T19:42:17;17.00;99.90
20139;DHT22;10230;51.502;10.800;2022-10-15T19:44:43;17.10;99.90
20139;DHT22;10230;51.502;10.800;2022-10-15T19:47:09;16.90;99.90
20139;DHT22;10230;51.502;10.800;2022-10-15T19:49:34;16.90;99.90
20139;DHT22;10230;51.502;10.800;2022-10-15T19:52:00;16.90;99.90
20139;DHT22;10230;51.502;10.800;2022-10-15T19:54:27;16.90;99.90
20139;DHT22;10230;51.502;10.800;2022-10-15T19:56:52;16.80;99.90
20139;DHT22;10230;51.502;10.800;2022-10-15T19:59:18;16.80;99.90
20139;DHT22;10230;51.502;10.800;2022-10-15T20:01:44;16.80;99.90
20139;DHT22;10230;51.502;10.800;2022-10-15T20:04:10;16.80;99.90
20139;DHT22;10230;51.502;10.800;2022-10-15T20:06:36;16.80;99.90
20139;DHT22;10230;51.502;10.800;2022-10-15T20:09:06;16.70;99.90
20139;DHT22;10230;51.502;10.800;2022-10-15T20:11:32;16.70;99.90
20139;DHT22;10230;51.502;10.800;2022-10-15T20:13:58;16.60;99.90
20139;DHT22;10230;51.502;10.800;2022-10-15T20:16:24;16.60;99.90
20139;DHT22;10230;51.502;10.800;2022-10-15T20:18:50;16.60;99.90
20139;DHT22;10230;51.502;10.800;2022-10-15T20:21:16;16.50;99.90
20139;DHT22;10230;51.502;10.800;2022-10-15T20:23:42;16.50;99.90
20139;DHT22;10230;51.502;10.800;2022-10-15T20:26:11;16.50;99.90
20139;DHT22;10230;51.502;10.800;2022-10-15T20:28:38;16.50;99.90
20139;DHT22;10230;51.502;10.800;2022-10-15T20:31:08;16.50;99.90
20139;DHT22;10230;51.502;10.800;2022-10-15T20:33:34;16.50;99.90
20139;DHT22;10230;51.502;10.800;2022-10-15T20:36:05;16.60;99.90
20139;DHT22;10230;51.502;10.800;2022-10-15T20:38:32;16.60;99.90
20139;DHT22;10230;51.502;10.800;2022-10-15T20:40:58;16.70;99.90
20139;DHT22;10230;51.502;10.800;2022-10-15T20:43:24;16.70;99.90
20139;DHT22;10230;51.502;10.800;2022-10-15T20:45:50;16.80;99.90
20139;DHT22;10230;51.502;10.800;2022-10-15T20:48:19;16.80;99.90
20139;DHT22;10230;51.502;10.800;2022-10-15T20:50:48;16.50;99.90
20139;DHT22;10230;51.502;10.800;2022-10-15T20:55:40;16.70;99.90
20139;DHT22;10230;51.502;10.800;2022-10-15T20:58:06;16.80;99.90
20139;DHT22;10230;51.502;10.800;2022-10-15T21:00:32;16.80;99.90
20139;DHT22;10230;51.502;10.800;2022-10-15T21:02:57;16.80;99.90
20139;DHT22;10230;51.502;10.800;2022-10-15T21:05:23;16.70;99.90
20139;DHT22;10230;51.502;10.800;2022-10-15T21:07:49;16.60;99.90
20139;DHT22;10230;51.502;10.800;2022-10-15T21:10:14;16.60;99.90
20139;DHT22;10230;51.502;10.800;2022-10-15T21:12:40;16.50;99.90
20139;DHT22;10230;51.502;10.800;2022-10-15T21:15:06;16.40;99.90
20139;DHT22;10230;51.502;10.800;2022-10-15T21:17:32;16.40;99.90
20139;DHT22;10230;51.502;10.800;2022-10-15T21:19:57;16.40;99.90
20139;DHT22;10230;51.502;10.800;2022-10-15T21:22:23;16.40;99.90
20139;DHT22;10230;51.502;10.800;2022-10-15T21:24:49;16.50;99.90
20139;DHT22;10230;51.502;10.800;2022-10-15T21:27:14;16.50;99.90
20139;DHT22;10230;51.502;10.800;2022-10-15T21:29:40;16.60;99.90
20139;DHT22;10230;51.502;10.800;2022-10-15T21:32:08;16.60;99.90
20139;DHT22;10230;51.502;10.800;2022-10-15T21:34:33;16.60;99.90
20139;DHT22;10230;51.502;10.800;2022-10-15T21:36:59;16.60;99.90
20139;DHT22;10230;51.502;10.800;2022-10-15T21:39:25;16.60;99.90
20139;DHT22;10230;51.502;10.800;2022-10-15T21:41:50;16.60;99.90
20139;DHT22;10230;51.502;10.800;2022-10-15T21:44:16;16.60;99.90
20139;DHT22;10230;51.502;10.800;2022-10-15T21:46:42;16.60;99.90
20139;DHT22;10230;51.502;10.800;2022-10-15T21:49:08;16.60;99.90
20139;DHT22;10230;51.502;10.800;2022-10-15T21:51:35;16.60;99.90
20139;DHT22;10230;51.502;10.800;2022-10-15T21:54:03;16.70;99.90
20139;DHT22;10230;51.502;10.800;2022-10-15T21:56:29;16.70;99.90
20139;DHT22;10230;51.502;10.800;2022-10-15T21:58:55;16.60;99.90
20139;DHT22;10230;51.502;10.800;2022-10-15T22:01:25;16.70;99.90
20139;DHT22;10230;51.502;10.800;2022-10-15T22:06:19;16.70;99.90
20139;DHT22;10230;51.502;10.800;2022-10-15T22:08:46;16.70;99.90
20139;DHT22;10230;51.502;10.800;2022-10-15T22:11:23;16.70;99.90
20139;DHT22;10230;51.502;10.800;2022-10-15T22:13:52;16.70;99.90
20139;DHT22;10230;51.502;10.800;2022-10-15T22:16:19;16.60;99.90
20139;DHT22;10230;51.502;10.800;2022-10-15T22:18:45;16.60;99.90
20139;DHT22;10230;51.502;10.800;2022-10-15T22:21:28;16.60;99.90
20139;DHT22;10230;51.502;10.800;2022-10-15T22:23:59;16.60;99.90
20139;DHT22;10230;51.502;10.800;2022-10-15T22:26:28;16.50;99.90
20139;DHT22;10230;51.502;10.800;2022-10-15T22:28:56;16.50;99.90
20139;DHT22;10230;51.502;10.800;2022-10-15T22:31:22;16.40;99.90
20139;DHT22;10230;51.502;10.800;2022-10-15T22:33:48;16.40;99.90
20139;DHT22;10230;51.502;10.800;2022-10-15T22:36:22;16.30;99.90
20139;DHT22;10230;51.502;10.800;2022-10-15T22:38:52;16.30;99.90
20139;DHT22;10230;51.502;10.800;2022-10-15T22:41:18;16.20;99.90
20139;DHT22;10230;51.502;10.800;2022-10-15T22:43:44;16.20;99.90
20139;DHT22;10230;51.502;10.800;2022-10-15T22:46:10;16.10;99.90
20139;DHT22;10230;51.502;10.800;2022-10-15T22:48:38;16.10;99.90
20139;DHT22;10230;51.502;10.800;2022-10-15T22:51:06;16.10;99.90
20139;DHT22;10230;51.502;10.800;2022-10-15T22:53:33;16.00;99.90
20139;DHT22;10230;51.502;10.800;2022-10-15T22:56:00;16.00;99.90
20139;DHT22;10230;51.502;10.800;2022-10-15T22:58:27;16.00;99.90
20139;DHT22;10230;51.502;10.800;2022-10-15T23:00:53;16.00;99.90
20139;DHT22;10230;51.502;10.800;2022-10-15T23:03:20;16.00;99.90
20139;DHT22;10230;51.502;10.800;2022-10-15T23:05:52;15.90;99.90
20139;DHT22;10230;51.502;10.800;2022-10-15T23:08:19;15.90;99.90
20139;DHT22;10230;51.502;10.800;2022-10-15T23:10:45;15.80;99.90
20139;DHT22;10230;51.502;10.800;2022-10-15T23:13:11;15.80;99.90
20139;DHT22;10230;51.502;10.800;2022-10-15T23:15:36;15.80;99.90
20139;DHT22;10230;51.502;10.800;2022-10-15T23:18:02;15.70;99.90
20139;DHT22;10230;51.502;10.800;2022-10-15T23:20:28;15.70;99.90
20139;DHT22;10230;51.502;10.800;2022-10-15T23:22:54;15.70;99.90
20139;DHT22;10230;51.502;10.800;2022-10-15T23:25:20;15.60;99.90
20139;DHT22;10230;51.502;10.800;2022-10-15T23:27:45;15.60;99.90
20139;DHT22;10230;51.502;10.800;2022-10-15T23:30:11;15.60;99.90
20139;DHT22;10230;51.502;10.800;2022-10-15T23:32:37;15.50;99.90
20139;DHT22;10230;51.502;10.800;2022-10-15T23:35:04;15.40;99.90
20139;DHT22;10230;51.502;10.800;2022-10-15T23:37:30;15.40;99.90
20139;DHT22;10230;51.502;10.800;2022-10-15T23:39:55;15.40;99.90
20139;DHT22;10230;51.502;10.800;2022-10-15T23:42:22;15.30;99.90
20139;DHT22;10230;51.502;10.800;2022-10-15T23:44:48;15.30;99.90
20139;DHT22;10230;51.502;10.800;2022-10-15T23:47:13;15.30;99.90
20139;DHT22;10230;51.502;10.800;2022-10-15T23:49:39;15.30;99.90
20139;DHT22;10230;51.502;10.800;2022-10-15T23:52:05;15.30;99.90
20139;DHT22;10230;51.502;10.800;2022-10-15T23:54:30;15.30;99.90
20139;DHT22;10230;51.502;10.800;2022-10-15T23:56:56;15.30;99.90
20139;DHT22;10230;51.502;10.800;2022-10-15T23:59:22;15.30;99.90
